TimePST,TemperatureF,Dew PointF,Humidity,Sea Level PressureIn,VisibilityMPH,Wind Direction,Wind SpeedMPH,Gust SpeedMPH,PrecipitationIn,Events,Conditions,WindDirDegrees,DateUTC
12:15 AM,32.0,24.8,75,29.97,10.0,West,4.6,-,N/A,,Scattered Clouds,280,2013-03-07 08:15:00
12:35 AM,30.2,24.8,80,29.96,10.0,Calm,Calm,-,N/A,,Scattered Clouds,0,2013-03-07 08:35:00
12:55 AM,30.2,24.8,80,29.95,10.0,West,6.9,-,N/A,,Clear,270,2013-03-07 08:55:00
1:15 AM,30.2,26.6,86,29.95,10.0,Calm,Calm,-,N/A,,Scattered Clouds,0,2013-03-07 09:15:00
1:35 AM,30.2,26.6,86,29.94,10.0,West,4.6,-,N/A,,Scattered Clouds,260,2013-03-07 09:35:00
1:55 AM,30.2,24.8,80,29.94,10.0,West,4.6,-,N/A,,Clear,260,2013-03-07 09:55:00
2:15 AM,30.2,24.8,80,29.93,10.0,West,6.9,-,N/A,,Clear,260,2013-03-07 10:15:00
2:55 AM,30.2,26.6,86,29.92,10.0,SW,8.1,-,N/A,,Mostly Cloudy,220,2013-03-07 10:55:00
3:15 AM,30.2,26.6,86,29.93,10.0,WSW,9.2,16.1,N/A,,Mostly Cloudy,240,2013-03-07 11:15:00
3:35 AM,30.2,23.0,75,29.92,10.0,SW,9.2,17.3,N/A,,Scattered Clouds,220,2013-03-07 11:35:00
3:55 AM,30.2,24.8,80,29.93,10.0,WSW,8.1,-,N/A,,Clear,240,2013-03-07 11:55:00
4:15 AM,30.2,26.6,86,29.94,7.0,WSW,6.9,19.6,N/A,,Clear,240,2013-03-07 12:15:00
4:35 AM,30.2,26.6,86,29.94,10.0,SW,5.8,-,N/A,,Clear,230,2013-03-07 12:35:00
4:55 AM,30.2,26.6,86,29.94,10.0,WSW,5.8,-,N/A,,Clear,250,2013-03-07 12:55:00
5:15 AM,30.2,24.8,80,29.94,10.0,WSW,5.8,-,N/A,,Clear,250,2013-03-07 13:15:00
5:35 AM,30.2,24.8,80,29.94,10.0,West,6.9,-,N/A,,Clear,260,2013-03-07 13:35:00
5:55 AM,30.2,26.6,86,29.94,10.0,West,9.2,-,N/A,,Clear,260,2013-03-07 13:55:00
6:15 AM,30.2,26.6,86,29.93,10.0,West,8.1,-,N/A,,Clear,260,2013-03-07 14:15:00
6:35 AM,32.0,26.6,80,29.94,10.0,West,9.2,-,N/A,,Clear,260,2013-03-07 14:35:00
6:55 AM,32.0,26.6,80,29.93,10.0,WSW,8.1,-,N/A,,Clear,240,2013-03-07 14:55:00
7:15 AM,32.0,26.6,80,29.93,10.0,West,6.9,-,N/A,,Clear,260,2013-03-07 15:15:00
7:35 AM,32.0,24.8,75,29.93,10.0,WSW,9.2,-,N/A,,Clear,240,2013-03-07 15:35:00
7:55 AM,32.0,26.6,80,29.94,10.0,SW,6.9,-,N/A,,Clear,230,2013-03-07 15:55:00
8:15 AM,32.0,26.6,80,29.94,10.0,WSW,5.8,-,N/A,,Clear,240,2013-03-07 16:15:00
8:35 AM,33.8,23.0,65,29.94,10.0,WSW,8.1,-,N/A,,Clear,250,2013-03-07 16:35:00
8:55 AM,33.8,23.0,65,29.94,10.0,WSW,4.6,-,N/A,,Clear,240,2013-03-07 16:55:00
9:15 AM,33.8,23.0,65,29.94,10.0,West,9.2,-,N/A,,Clear,260,2013-03-07 17:15:00
9:35 AM,35.6,23.0,60,29.93,10.0,West,12.7,-,N/A,,Clear,260,2013-03-07 17:35:00
9:55 AM,35.6,24.8,65,29.93,10.0,West,15.0,19.6,N/A,,Clear,260,2013-03-07 17:55:00
10:15 AM,35.6,24.8,65,29.93,10.0,SW,8.1,17.3,N/A,,Clear,230,2013-03-07 18:15:00
10:35 AM,35.6,26.6,70,29.94,10.0,WSW,8.1,-,N/A,,Scattered Clouds,250,2013-03-07 18:35:00
10:55 AM,35.6,26.6,70,29.94,10.0,WSW,8.1,-,N/A,,Scattered Clouds,250,2013-03-07 18:55:00
11:15 AM,35.6,26.6,70,29.93,10.0,West,10.4,-,N/A,,Mostly Cloudy,270,2013-03-07 19:15:00
11:35 AM,37.4,26.6,65,29.92,10.0,WSW,6.9,-,N/A,,Scattered Clouds,250,2013-03-07 19:35:00
11:55 AM,37.4,26.6,65,29.92,10.0,SW,3.5,-,N/A,,Scattered Clouds,230,2013-03-07 19:55:00
12:15 PM,37.4,26.6,65,29.91,10.0,SSW,4.6,-,N/A,,Scattered Clouds,210,2013-03-07 20:15:00
12:35 PM,37.4,28.4,70,29.90,10.0,South,8.1,-,N/A,,Scattered Clouds,190,2013-03-07 20:35:00
12:55 PM,37.4,26.6,65,29.89,10.0,West,6.9,-,N/A,,Scattered Clouds,260,2013-03-07 20:55:00
1:15 PM,37.4,26.6,65,29.88,10.0,WSW,8.1,-,N/A,,Scattered Clouds,240,2013-03-07 21:15:00
1:35 PM,39.2,26.6,61,29.87,10.0,SSW,9.2,-,N/A,,Clear,210,2013-03-07 21:35:00
1:55 PM,37.4,26.6,65,29.86,10.0,WSW,9.2,-,N/A,,Clear,240,2013-03-07 21:55:00
2:15 PM,37.4,28.4,70,29.88,10.0,SW,13.8,-,N/A,,Scattered Clouds,230,2013-03-07 22:15:00
2:35 PM,35.6,28.4,75,29.87,10.0,SW,8.1,-,N/A,,Mostly Cloudy,230,2013-03-07 22:35:00
2:55 PM,33.8,28.4,81,29.87,10.0,WSW,4.6,-,N/A,,Mostly Cloudy,240,2013-03-07 22:55:00
3:15 PM,35.6,26.6,70,29.87,10.0,SW,6.9,-,N/A,,Scattered Clouds,230,2013-03-07 23:15:00
3:35 PM,33.8,28.4,81,29.87,2.0,WSW,9.2,-,N/A,,Haze,240,2013-03-07 23:35:00
3:55 PM,32.0,30.2,93,29.87,3.0,WSW,4.6,-,N/A,Snow,Light Snow,240,2013-03-07 23:55:00
5:35 PM,32.0,28.4,87,29.87,1.5,SSW,6.9,-,N/A,Snow,Light Snow,210,2013-03-08 01:35:00
5:55 PM,32.0,26.6,80,29.86,3.0,SW,3.5,-,N/A,Snow,Light Snow,220,2013-03-08 01:55:00
6:15 PM,32.0,26.6,80,29.87,10.0,West,4.6,-,N/A,,Overcast,270,2013-03-08 02:15:00
6:35 PM,32.0,26.6,80,29.87,10.0,Calm,Calm,-,N/A,,Overcast,0,2013-03-08 02:35:00
6:55 PM,32.0,26.6,80,29.86,10.0,Calm,Calm,-,N/A,,Overcast,0,2013-03-08 02:55:00
7:15 PM,30.2,26.6,86,29.86,10.0,Calm,Calm,-,N/A,,Overcast,0,2013-03-08 03:15:00
7:35 PM,30.2,26.6,86,29.87,7.0,Calm,Calm,-,N/A,,Overcast,0,2013-03-08 03:35:00
7:55 PM,30.2,26.6,86,29.86,3.0,Calm,Calm,-,N/A,Snow,Light Snow,0,2013-03-08 03:55:00
8:15 PM,30.2,26.6,86,29.86,4.0,Calm,Calm,-,N/A,Snow,Light Snow,0,2013-03-08 04:15:00
8:35 PM,30.2,26.6,86,29.86,10.0,WSW,3.5,-,N/A,,Overcast,240,2013-03-08 04:35:00
8:55 PM,30.2,24.8,80,29.86,10.0,SW,4.6,-,N/A,,Scattered Clouds,230,2013-03-08 04:55:00
9:15 PM,28.4,23.0,80,29.86,10.0,Calm,Calm,-,N/A,,Clear,0,2013-03-08 05:15:00
9:35 PM,28.4,24.8,86,29.86,10.0,Calm,Calm,-,N/A,,Clear,0,2013-03-08 05:35:00
9:55 PM,28.4,24.8,86,29.85,10.0,WSW,3.5,-,N/A,,Scattered Clouds,240,2013-03-08 05:55:00
10:15 PM,28.4,23.0,80,29.84,10.0,West,5.8,-,N/A,,Scattered Clouds,280,2013-03-08 06:15:00
10:35 PM,28.4,21.2,74,29.84,10.0,SW,3.5,-,N/A,,Clear,230,2013-03-08 06:35:00
10:55 PM,30.2,19.4,64,29.84,10.0,Calm,Calm,-,N/A,,Scattered Clouds,0,2013-03-08 06:55:00
11:15 PM,30.2,21.2,69,29.82,7.0,Calm,Calm,-,N/A,,Scattered Clouds,0,2013-03-08 07:15:00
11:35 PM,30.2,21.2,69,29.81,10.0,Calm,Calm,-,N/A,,Mostly Cloudy,0,2013-03-08 07:35:00
11:55 PM,28.4,23.0,80,29.80,10.0,Calm,Calm,-,N/A,,Mostly Cloudy,0,2013-03-08 07:55:00